createdAt,value
2023-01-25T00:00:29.803Z,20.33
2023-01-25T00:02:56.201Z,24.58
2023-01-25T00:05:22.899Z,27.20
2023-01-25T00:07:49.318Z,26.75
2023-01-25T00:10:15.816Z,24.05
2023-01-25T00:12:42.183Z,22.17
2023-01-25T00:15:09.279Z,20.98
2023-01-25T00:17:35.951Z,23.70
2023-01-25T00:20:02.752Z,23.40
2023-01-25T00:22:29.237Z,19.90
2023-01-25T00:24:55.567Z,22.30
2023-01-25T00:27:21.913Z,25.02
2023-01-25T00:29:48.484Z,19.85
2023-01-25T00:32:14.857Z,21.30
2023-01-25T00:34:44.370Z,18.88
2023-01-25T00:37:46.850Z,19.05
2023-01-25T00:40:13.702Z,20.23
2023-01-25T00:42:40.864Z,19.98
2023-01-25T00:45:09.622Z,19.13
2023-01-25T00:47:36.304Z,22.33
2023-01-25T00:50:02.721Z,18.20
2023-01-25T00:52:29.107Z,16.45
2023-01-25T00:54:55.548Z,20.73
2023-01-25T00:57:21.965Z,17.48
2023-01-25T00:59:48.455Z,22.02
2023-01-25T01:02:14.816Z,18.30
2023-01-25T01:04:41.288Z,18.98
2023-01-25T01:07:07.700Z,22.30
2023-01-25T01:09:34.143Z,18.33
2023-01-25T01:12:00.648Z,21.05
2023-01-25T01:14:27.100Z,16.88
2023-01-25T01:16:53.506Z,22.80
2023-01-25T01:19:19.924Z,19.40
2023-01-25T01:21:46.513Z,20.10
2023-01-25T01:24:13.146Z,18.98
2023-01-25T01:26:39.553Z,22.67
2023-01-25T01:29:06.584Z,20.20
2023-01-25T01:31:33.033Z,22.38
2023-01-25T01:34:01.039Z,15.98
2023-01-25T01:36:29.312Z,19.83
2023-01-25T01:38:56.050Z,21.13
2023-01-25T01:41:22.530Z,20.65
2023-01-25T01:43:49.481Z,19.70
2023-01-25T01:46:35.047Z,21.25
2023-01-25T01:49:02.996Z,22.10
2023-01-25T01:51:43.489Z,21.05
2023-01-25T01:54:16.483Z,21.52
2023-01-25T01:56:48.908Z,22.73
2023-01-25T01:59:16.229Z,18.80
2023-01-25T02:01:44.460Z,19.35
2023-01-25T02:04:12.735Z,19.63
2023-01-25T02:07:00.813Z,24.67
2023-01-25T02:09:29.719Z,20.50
2023-01-25T02:11:57.375Z,19.77
2023-01-25T02:14:23.999Z,20.15
2023-01-25T02:16:50.421Z,16.25
2023-01-25T02:19:29.648Z,19.35
2023-01-25T02:21:59.035Z,21.92
2023-01-25T02:24:33.008Z,18.85
2023-01-25T02:26:59.732Z,23.00
2023-01-25T02:29:27.608Z,22.75
2023-01-25T02:32:04.196Z,23.92
2023-01-25T02:34:30.613Z,17.27
2023-01-25T02:36:57.399Z,16.83
2023-01-25T02:39:26.612Z,19.75
2023-01-25T02:41:52.979Z,19.20
2023-01-25T02:44:28.428Z,22.85
2023-01-25T02:46:55.052Z,21.75
2023-01-25T02:49:21.619Z,22.05
2023-01-25T02:51:55.759Z,20.85
2023-01-25T02:54:23.032Z,20.00
2023-01-25T02:56:49.944Z,19.73
2023-01-25T02:59:16.544Z,17.13
2023-01-25T03:01:43.586Z,19.77
2023-01-25T03:04:10.655Z,25.23
2023-01-25T03:06:37.838Z,17.15
2023-01-25T03:09:07.138Z,21.90
2023-01-25T03:11:35.677Z,20.33
2023-01-25T03:14:02.436Z,17.02
2023-01-25T03:16:31.280Z,21.25
2023-01-25T03:18:57.811Z,23.27
2023-01-25T03:21:24.245Z,22.77
2023-01-25T03:24:00.046Z,19.40
2023-01-25T03:26:28.276Z,21.58
2023-01-25T03:28:55.135Z,23.10
2023-01-25T03:31:21.661Z,23.50
2023-01-25T03:33:48.546Z,21.85
2023-01-25T03:36:15.016Z,21.20
2023-01-25T03:38:41.384Z,19.55
2023-01-25T03:41:09.539Z,21.60
2023-01-25T03:43:35.868Z,17.77
2023-01-25T03:46:02.742Z,19.23
2023-01-25T03:48:30.284Z,22.90
2023-01-25T03:50:59.027Z,18.98
2023-01-25T03:53:29.038Z,22.52
2023-01-25T03:55:59.464Z,23.83
2023-01-25T03:58:26.454Z,20.98
2023-01-25T04:00:55.728Z,17.00
2023-01-25T04:03:22.628Z,20.02
2023-01-25T04:05:49.010Z,16.25
2023-01-25T04:08:17.915Z,21.20
2023-01-25T04:10:45.601Z,22.02
2023-01-25T04:13:11.972Z,27.70
2023-01-25T04:15:38.436Z,19.65
2023-01-25T04:18:04.828Z,18.58
2023-01-25T04:20:31.216Z,21.50
2023-01-25T04:22:57.783Z,20.25
2023-01-25T04:25:24.145Z,19.08
2023-01-25T04:27:51.528Z,20.33
2023-01-25T04:30:18.000Z,16.92
2023-01-25T04:32:44.718Z,19.73
2023-01-25T04:35:11.706Z,17.25
2023-01-25T04:37:38.227Z,18.13
2023-01-25T04:40:06.227Z,17.23
2023-01-25T04:42:32.735Z,20.38
2023-01-25T04:44:59.070Z,19.38
2023-01-25T04:47:25.532Z,18.25
2023-01-25T04:49:52.056Z,15.45
2023-01-25T04:52:18.494Z,15.38
2023-01-25T04:54:44.863Z,16.40
2023-01-25T04:57:13.144Z,18.48
2023-01-25T04:59:39.652Z,16.95
2023-01-25T05:02:06.065Z,13.43
2023-01-25T05:04:32.555Z,18.77
2023-01-25T05:06:58.895Z,15.98
2023-01-25T05:09:25.407Z,20.42
2023-01-25T05:11:51.768Z,16.45
2023-01-25T05:14:18.205Z,16.65
2023-01-25T05:16:44.662Z,15.48
2023-01-25T05:19:11.095Z,17.40
2023-01-25T05:21:56.092Z,17.52
2023-01-25T05:24:22.686Z,15.68
2023-01-25T05:27:01.556Z,17.23
2023-01-25T05:29:28.787Z,14.32
2023-01-25T05:31:55.277Z,19.67
2023-01-25T05:34:21.880Z,16.55
2023-01-25T05:36:48.494Z,14.48
2023-01-25T05:39:14.852Z,16.48
2023-01-25T05:41:41.364Z,16.15
2023-01-25T05:44:07.736Z,19.30
2023-01-25T05:46:34.090Z,17.05
2023-01-25T05:49:00.538Z,17.40
2023-01-25T05:51:26.886Z,15.55
2023-01-25T05:53:56.462Z,15.07
2023-01-25T05:56:23.032Z,22.30
2023-01-25T05:58:57.037Z,18.05
2023-01-25T06:01:23.970Z,18.85
2023-01-25T06:03:50.576Z,19.98
2023-01-25T06:06:17.479Z,13.52
2023-01-25T06:08:44.320Z,14.68
2023-01-25T06:11:15.547Z,18.50
2023-01-25T06:13:42.983Z,16.85
2023-01-25T06:16:09.921Z,15.73
2023-01-25T06:18:37.107Z,17.38
2023-01-25T06:21:04.485Z,15.48
2023-01-25T06:23:31.172Z,19.80
2023-01-25T06:26:02.080Z,15.38
2023-01-25T06:28:32.912Z,16.58
2023-01-25T06:31:11.456Z,15.93
2023-01-25T06:33:38.431Z,18.70
2023-01-25T06:36:11.316Z,14.15
2023-01-25T06:38:38.620Z,18.83
2023-01-25T06:41:07.529Z,15.60
2023-01-25T06:43:34.715Z,16.08
2023-01-25T06:46:02.762Z,18.38
2023-01-25T06:48:30.520Z,17.65
2023-01-25T06:50:59.167Z,17.73
2023-01-25T06:53:27.418Z,17.48
2023-01-25T06:55:59.350Z,15.93
2023-01-25T06:58:26.988Z,20.02
2023-01-25T07:00:53.767Z,20.73
2023-01-25T07:03:20.303Z,19.55
2023-01-25T07:05:46.684Z,19.98
2023-01-25T07:08:13.060Z,21.60
2023-01-25T07:10:39.483Z,20.50
2023-01-25T07:13:05.835Z,15.15
2023-01-25T07:15:32.166Z,17.67
2023-01-25T07:18:08.331Z,14.93
2023-01-25T07:20:42.215Z,18.38
2023-01-25T07:23:08.573Z,14.90
2023-01-25T07:25:34.961Z,16.67
2023-01-25T07:28:01.317Z,19.63
2023-01-25T07:30:27.703Z,20.90
2023-01-25T07:32:55.506Z,23.05
2023-01-25T07:35:21.856Z,20.95
2023-01-25T07:37:48.289Z,20.83
2023-01-25T07:40:15.846Z,20.85
2023-01-25T07:42:42.236Z,19.48
2023-01-25T07:45:09.367Z,18.17
2023-01-25T07:47:37.181Z,18.50
2023-01-25T07:50:04.819Z,18.98
2023-01-25T07:52:31.168Z,17.88
2023-01-25T07:54:57.576Z,15.02
2023-01-25T07:57:24.001Z,19.98
2023-01-25T07:59:50.382Z,18.73
2023-01-25T08:02:16.872Z,18.50
2023-01-25T08:04:44.447Z,15.80
2023-01-25T08:07:11.540Z,14.98
2023-01-25T08:09:38.057Z,18.00
2023-01-25T08:12:06.356Z,19.08
2023-01-25T08:14:34.229Z,19.10
2023-01-25T08:17:01.734Z,19.08
2023-01-25T08:19:28.085Z,18.85
2023-01-25T08:21:54.596Z,19.23
2023-01-25T08:24:21.294Z,15.52
2023-01-25T08:26:48.130Z,17.63
2023-01-25T08:29:14.559Z,20.25
2023-01-25T08:31:43.916Z,17.13
2023-01-25T08:34:10.885Z,21.23
2023-01-25T08:36:37.279Z,17.90
2023-01-25T08:39:07.088Z,15.93
2023-01-25T08:41:34.771Z,16.10
2023-01-25T08:44:01.849Z,17.98
2023-01-25T08:46:31.917Z,15.88
2023-01-25T08:49:00.059Z,20.25
2023-01-25T08:51:27.862Z,17.85
2023-01-25T08:53:54.504Z,19.40
2023-01-25T08:56:21.453Z,20.95
2023-01-25T08:58:49.361Z,16.25
2023-01-25T09:01:17.119Z,14.30
2023-01-25T09:03:46.435Z,15.90
2023-01-25T09:06:13.435Z,15.23
2023-01-25T09:08:40.335Z,15.60
2023-01-25T09:11:27.106Z,18.55
2023-01-25T09:13:53.654Z,17.73
2023-01-25T09:16:28.480Z,17.52
2023-01-25T09:18:57.129Z,15.50
2023-01-25T09:21:23.892Z,14.77
2023-01-25T09:24:05.683Z,13.48
2023-01-25T09:26:35.029Z,17.17
2023-01-25T09:29:01.472Z,12.45
2023-01-25T09:31:29.264Z,17.05
2023-01-25T09:33:57.115Z,18.52
2023-01-25T09:36:23.760Z,14.70
2023-01-25T09:38:50.157Z,12.63
2023-01-25T09:41:28.732Z,14.90
2023-01-25T09:44:20.016Z,13.27
2023-01-25T09:46:50.545Z,15.00
2023-01-25T09:49:44.638Z,16.38
2023-01-25T09:52:23.314Z,16.55
2023-01-25T09:54:50.282Z,16.27
2023-01-25T09:57:32.089Z,14.60
2023-01-25T10:00:03.254Z,16.40
2023-01-25T10:02:30.568Z,13.65
2023-01-25T10:05:05.698Z,19.90
2023-01-25T10:07:42.791Z,12.80
2023-01-25T10:12:42.794Z,14.40
2023-01-25T10:15:22.844Z,13.20
2023-01-25T10:17:59.240Z,14.65
2023-01-25T10:20:37.765Z,14.27
2023-01-25T10:23:25.127Z,14.10
2023-01-25T10:25:58.383Z,17.58
2023-01-25T10:28:31.056Z,14.02
2023-01-25T10:31:06.952Z,13.90
2023-01-25T10:33:39.282Z,13.48
2023-01-25T10:36:07.096Z,13.20
2023-01-25T10:38:48.962Z,14.93
2023-01-25T10:41:32.491Z,15.48
2023-01-25T10:44:18.966Z,15.73
2023-01-25T10:47:03.827Z,13.68
2023-01-25T10:49:46.356Z,12.15
2023-01-25T10:52:18.695Z,14.80
2023-01-25T10:54:46.084Z,13.95
2023-01-25T10:57:18.330Z,13.70
2023-01-25T10:59:47.968Z,12.57
2023-01-25T11:02:36.337Z,11.75
2023-01-25T11:05:25.730Z,14.63
2023-01-25T11:07:52.756Z,12.15
2023-01-25T11:10:31.546Z,15.00
2023-01-25T11:13:16.541Z,11.30
2023-01-25T11:15:45.031Z,13.07
2023-01-25T11:18:28.384Z,16.70
2023-01-25T11:21:22.137Z,14.10
2023-01-25T11:23:58.173Z,16.83
2023-01-25T11:26:24.583Z,13.43
2023-01-25T11:29:05.433Z,16.02
2023-01-25T11:31:31.867Z,15.30
2023-01-25T11:33:58.320Z,18.00
2023-01-25T11:36:37.684Z,13.77
2023-01-25T11:39:43.492Z,13.68
2023-01-25T11:42:34.818Z,15.57
2023-01-25T11:45:20.778Z,13.52
2023-01-25T11:48:46.214Z,15.63
2023-01-25T11:51:25.142Z,13.15
2023-01-25T11:54:19.499Z,14.75
2023-01-25T11:57:00.391Z,16.42
2023-01-25T12:00:03.596Z,14.82
2023-01-25T12:02:38.917Z,16.48
2023-01-25T12:05:24.245Z,17.85
2023-01-25T12:08:16.149Z,14.35
2023-01-25T12:11:09.946Z,18.98
2023-01-25T12:13:56.988Z,13.63
2023-01-25T12:16:44.994Z,18.02
2023-01-25T12:19:23.537Z,13.73
2023-01-25T12:22:17.634Z,16.85
2023-01-25T12:24:58.524Z,15.23
2023-01-25T12:27:46.736Z,13.73
2023-01-25T12:30:40.984Z,13.27
2023-01-25T12:36:00.880Z,13.35
2023-01-25T12:38:38.137Z,16.88
2023-01-25T12:41:15.556Z,12.70
2023-01-25T12:43:48.694Z,15.48
2023-01-25T12:46:57.093Z,12.63
2023-01-25T12:49:51.939Z,11.68
2023-01-25T12:52:37.514Z,13.35
2023-01-25T12:55:07.439Z,12.98
2023-01-25T12:57:42.821Z,14.88
2023-01-25T13:00:23.988Z,14.15
2023-01-25T13:03:14.777Z,14.75
2023-01-25T13:05:51.330Z,14.35
2023-01-25T13:08:32.131Z,14.32
2023-01-25T13:11:19.262Z,13.80
2023-01-25T13:13:45.667Z,12.73
2023-01-25T13:16:32.286Z,11.93
2023-01-25T13:18:59.483Z,13.52
2023-01-25T13:21:46.945Z,13.40
2023-01-25T13:24:22.011Z,12.73
2023-01-25T13:26:52.790Z,10.45
2023-01-25T13:29:49.132Z,9.93
2023-01-25T13:32:24.733Z,11.80
2023-01-25T13:34:51.086Z,14.57
2023-01-25T13:37:22.609Z,14.32
2023-01-25T13:39:51.748Z,16.08
2023-01-25T13:42:27.320Z,12.38
2023-01-25T13:45:02.583Z,12.55
2023-01-25T13:47:38.968Z,14.27
2023-01-25T13:50:25.790Z,10.95
2023-01-25T13:53:01.087Z,13.63
2023-01-25T13:55:29.363Z,14.88
2023-01-25T13:58:25.290Z,16.27
2023-01-25T14:00:51.735Z,11.35
2023-01-25T14:03:27.876Z,10.00
2023-01-25T14:05:57.140Z,9.43
2023-01-25T14:08:25.181Z,12.57
2023-01-25T14:10:52.751Z,10.43
2023-01-25T14:13:19.393Z,14.00
2023-01-25T14:15:53.219Z,14.07
2023-01-25T14:18:20.658Z,11.35
2023-01-25T14:20:53.368Z,11.48
2023-01-25T14:23:23.676Z,13.68
2023-01-25T14:25:50.663Z,22.00
2023-01-25T14:28:18.666Z,21.85
2023-01-25T14:30:54.678Z,17.88
2023-01-25T14:33:41.120Z,16.63
2023-01-25T14:36:24.171Z,19.40
2023-01-25T14:38:51.519Z,14.63
2023-01-25T14:41:37.203Z,16.20
2023-01-25T14:44:10.487Z,19.35
2023-01-25T14:46:38.750Z,15.55
2023-01-25T14:49:25.213Z,18.00
2023-01-25T14:52:05.064Z,18.25
2023-01-25T14:54:35.114Z,19.38
2023-01-25T14:57:07.111Z,25.80
2023-01-25T14:59:47.762Z,24.30
2023-01-25T15:02:48.671Z,17.77
2023-01-25T15:05:29.230Z,20.52
2023-01-25T15:08:15.649Z,18.50
2023-01-25T15:10:53.128Z,15.90
2023-01-25T15:13:21.592Z,22.23
2023-01-25T15:16:00.250Z,21.15
2023-01-25T15:18:54.024Z,23.65
2023-01-25T15:21:26.562Z,24.02
2023-01-25T15:23:54.664Z,17.98
2023-01-25T15:26:23.195Z,20.55
2023-01-25T15:28:51.519Z,15.57
2023-01-25T15:31:24.950Z,24.05
2023-01-25T15:33:51.675Z,19.92
2023-01-25T15:36:18.559Z,20.33
2023-01-25T15:38:45.352Z,20.77
2023-01-25T15:41:12.429Z,21.92
2023-01-25T15:43:38.786Z,20.70
2023-01-25T15:46:06.818Z,17.85
2023-01-25T15:48:36.492Z,21.77
2023-01-25T15:51:03.313Z,18.15
2023-01-25T15:53:29.789Z,21.90
2023-01-25T15:56:05.898Z,19.70
2023-01-25T15:58:41.023Z,19.50
2023-01-25T16:01:07.451Z,18.05
2023-01-25T16:03:33.894Z,17.88
2023-01-25T16:06:02.957Z,18.05
2023-01-25T16:08:29.824Z,20.70
2023-01-25T16:10:56.968Z,21.90
2023-01-25T16:13:24.580Z,17.15
2023-01-25T16:15:56.687Z,21.95
2023-01-25T16:18:23.131Z,19.15
2023-01-25T16:20:50.181Z,19.48
2023-01-25T16:23:16.585Z,16.48
2023-01-25T16:25:44.470Z,19.42
2023-01-25T16:28:17.389Z,19.50
2023-01-25T16:30:46.737Z,23.88
2023-01-25T16:33:13.172Z,18.88
2023-01-25T16:35:39.557Z,23.88
2023-01-25T16:38:06.013Z,21.45
2023-01-25T16:40:38.709Z,20.83
2023-01-25T16:43:05.769Z,21.25
2023-01-25T16:45:32.268Z,22.50
2023-01-25T16:47:58.674Z,23.27
2023-01-25T16:50:25.021Z,23.02
2023-01-25T16:52:54.375Z,18.80
2023-01-25T16:55:20.772Z,21.95
2023-01-25T16:57:50.543Z,19.65
2023-01-25T17:00:17.438Z,16.95
2023-01-25T17:02:58.295Z,24.35
2023-01-25T17:05:29.024Z,20.60
2023-01-25T17:07:55.476Z,22.33
2023-01-25T17:10:21.912Z,21.08
2023-01-25T17:12:48.386Z,23.23
2023-01-25T17:15:14.798Z,18.55
2023-01-25T17:17:41.351Z,24.05
2023-01-25T17:20:08.786Z,24.42
2023-01-25T17:22:37.394Z,23.38
2023-01-25T17:25:05.417Z,23.85
2023-01-25T17:27:32.234Z,21.70
2023-01-25T17:29:58.678Z,24.05
2023-01-25T17:32:25.141Z,25.63
2023-01-25T17:34:51.764Z,25.85
2023-01-25T17:37:18.213Z,22.30
2023-01-25T17:39:44.556Z,24.25
2023-01-25T17:42:13.117Z,29.77
2023-01-25T17:44:39.564Z,26.20
2023-01-25T17:47:06.047Z,28.08
2023-01-25T17:49:32.449Z,21.92
2023-01-25T17:51:58.886Z,28.75
2023-01-25T17:54:25.301Z,27.40
2023-01-25T17:56:51.783Z,30.02
2023-01-25T17:59:18.340Z,26.25
2023-01-25T18:01:44.762Z,27.52
2023-01-25T18:04:13.118Z,26.08
2023-01-25T18:06:39.546Z,27.90
2023-01-25T18:09:06.746Z,30.00
2023-01-25T18:11:35.537Z,25.23
2023-01-25T18:14:08.046Z,25.10
2023-01-25T18:16:37.374Z,25.25
2023-01-25T18:19:04.435Z,28.55
2023-01-25T18:21:33.236Z,31.33
2023-01-25T18:24:03.292Z,28.67
2023-01-25T18:26:32.126Z,28.42
2023-01-25T18:29:02.721Z,43.95
2023-01-25T18:31:29.255Z,29.60
2023-01-25T18:33:56.300Z,26.65
2023-01-25T18:36:22.710Z,31.60
2023-01-25T18:38:49.144Z,37.33
2023-01-25T18:41:15.599Z,27.95
2023-01-25T18:43:41.993Z,27.20
2023-01-25T18:46:09.020Z,34.22
2023-01-25T18:48:36.029Z,25.38
2023-01-25T18:51:11.191Z,27.42
2023-01-25T18:53:39.702Z,24.90
2023-01-25T18:56:17.729Z,29.73
2023-01-25T18:58:45.218Z,25.23
2023-01-25T19:01:15.055Z,21.63
2023-01-25T19:03:46.293Z,23.38
2023-01-25T19:06:13.095Z,30.00
2023-01-25T19:08:44.464Z,26.08
2023-01-25T19:11:14.799Z,22.58
2023-01-25T19:13:42.540Z,27.58
2023-01-25T19:16:15.509Z,25.73
2023-01-25T19:18:46.896Z,23.38
2023-01-25T19:23:42.152Z,27.23
2023-01-25T19:26:15.042Z,27.33
2023-01-25T19:28:42.616Z,23.33
2023-01-25T19:31:12.519Z,24.70
2023-01-25T19:33:39.210Z,27.83
2023-01-25T19:36:07.283Z,27.23
2023-01-25T19:38:37.932Z,30.17
2023-01-25T19:41:09.497Z,26.75
2023-01-25T19:43:36.090Z,28.60
2023-01-25T19:46:16.686Z,22.77
2023-01-25T19:48:44.348Z,26.23
2023-01-25T19:51:24.885Z,26.45
2023-01-25T19:54:21.588Z,30.08
2023-01-25T19:56:49.605Z,29.60
2023-01-25T19:59:18.605Z,23.10
2023-01-25T20:01:46.165Z,28.38
2023-01-25T20:04:14.935Z,27.10
2023-01-25T20:06:41.923Z,26.67
2023-01-25T20:09:11.087Z,27.40
2023-01-25T20:11:38.368Z,24.83
2023-01-25T20:14:05.999Z,22.13
2023-01-25T20:16:34.200Z,31.45
2023-01-25T20:19:01.873Z,29.48
2023-01-25T20:21:29.412Z,29.70
2023-01-25T20:24:00.243Z,25.65
2023-01-25T20:26:29.918Z,23.15
2023-01-25T20:28:58.680Z,24.15
2023-01-25T20:31:29.864Z,28.70
2023-01-25T20:34:11.766Z,25.92
2023-01-25T20:36:38.552Z,28.23
2023-01-25T20:39:06.727Z,25.92
2023-01-25T20:41:33.273Z,21.27
2023-01-25T20:44:01.963Z,23.05
2023-01-25T20:46:29.641Z,22.95
2023-01-25T20:48:56.136Z,27.92
2023-01-25T20:51:22.984Z,20.77
2023-01-25T20:53:50.313Z,21.45
2023-01-25T20:56:18.335Z,22.77
2023-01-25T20:58:50.257Z,21.63
2023-01-25T21:01:23.107Z,25.90
2023-01-25T21:03:50.075Z,23.60
2023-01-25T21:06:17.085Z,21.98
2023-01-25T21:08:43.881Z,23.65
2023-01-25T21:11:11.386Z,25.00
2023-01-25T21:13:37.944Z,27.75
2023-01-25T21:16:05.808Z,27.02
2023-01-25T21:18:35.580Z,30.50
2023-01-25T21:21:05.042Z,26.23
2023-01-25T21:23:34.010Z,26.65
2023-01-25T21:26:01.894Z,36.85
2023-01-25T21:28:29.157Z,29.35
2023-01-25T21:30:56.181Z,25.35
2023-01-25T21:33:22.845Z,25.20
2023-01-25T21:35:54.363Z,21.48
2023-01-25T21:38:21.220Z,27.25
2023-01-25T21:40:47.596Z,23.02
2023-01-25T21:43:14.124Z,28.40
2023-01-25T21:45:59.231Z,33.35
2023-01-25T21:48:44.031Z,27.58
2023-01-25T21:51:31.360Z,23.80
2023-01-25T21:53:58.665Z,23.58
2023-01-25T21:56:25.064Z,21.55
2023-01-25T21:58:51.520Z,21.67
2023-01-25T22:01:20.054Z,22.52
2023-01-25T22:03:50.788Z,24.02
2023-01-25T22:06:18.388Z,21.38
2023-01-25T22:08:45.295Z,26.98
2023-01-25T22:11:12.040Z,25.92
2023-01-25T22:13:38.820Z,27.30
2023-01-25T22:16:07.548Z,26.08
2023-01-25T22:18:36.825Z,40.42
2023-01-25T22:21:06.829Z,33.60
2023-01-25T22:23:34.851Z,28.70
2023-01-25T22:26:06.775Z,27.92
2023-01-25T22:28:50.300Z,17.70
2023-01-25T22:31:22.253Z,21.00
2023-01-25T22:33:49.514Z,21.42
2023-01-25T22:36:18.734Z,20.23
2023-01-25T22:38:45.749Z,24.67
2023-01-25T22:41:14.494Z,25.42
2023-01-25T22:43:41.423Z,24.10
2023-01-25T22:46:11.421Z,23.55
2023-01-25T22:48:38.063Z,20.75
2023-01-25T22:51:06.903Z,23.73
2023-01-25T22:53:34.052Z,25.67
2023-01-25T22:56:05.625Z,22.58
2023-01-25T22:58:34.080Z,16.45
2023-01-25T23:01:00.968Z,23.38
2023-01-25T23:03:27.396Z,23.48
2023-01-25T23:06:02.141Z,21.08
2023-01-25T23:08:32.790Z,25.48
2023-01-25T23:11:20.861Z,26.73
2023-01-25T23:14:07.038Z,22.30
2023-01-25T23:16:35.156Z,22.38
2023-01-25T23:19:02.581Z,22.80
2023-01-25T23:21:29.837Z,24.17
2023-01-25T23:23:58.267Z,24.10
2023-01-25T23:26:24.695Z,25.65
2023-01-25T23:28:53.170Z,24.75
2023-01-25T23:31:25.087Z,23.05
2023-01-25T23:33:54.211Z,20.83
2023-01-25T23:36:23.243Z,16.90
2023-01-25T23:38:50.390Z,19.88
2023-01-25T23:41:19.117Z,22.42
2023-01-25T23:43:46.075Z,20.77
2023-01-25T23:46:15.898Z,20.33
2023-01-25T23:48:43.420Z,21.88
2023-01-25T23:51:11.035Z,19.98
2023-01-25T23:53:38.815Z,18.48
2023-01-25T23:56:08.027Z,16.30
2023-01-25T23:58:36.716Z,17.58
